Time;durP1;ratioP1;P1;durP2;ratioP2;P2;SDS_P1;SDS_P2;PMS_P1;PMS_P2;Temp;Humidity;BMP_temperature;BMP_pressure;BME280_temperature;BME280_humidity;BME280_pressure;Samples;Min_cycle;Max_cycle;Signal;HPM_P1;HPM_P2
2023/02/26 01:05:44;;;;;;;;;;;;;;;0.43;62.09;99526.22;1088370;46;20842;-76
2023/02/26 01:06:47;;;;;;;;;;;;;;;0.48;62.16;99520.66;1087553;54;19939;-77
2023/02/26 01:07:54;;;;;;;;;;;;;;;0.52;62.44;99521.31;1087740;54;19945;-78
2023/02/26 01:09:01;;;;;;;;;;;;;;;0.58;62.15;99529.69;1087640;54;19966;-77
2023/02/26 01:10:05;;;;;;;;;;;;;;;0.64;62.03;99519.72;1087738;54;19949;-80
2023/02/26 01:11:06;;;;;;;;;;;;;;;0.65;62.11;99524.91;1087675;54;20198;-77
2023/02/26 01:12:12;;;;;;;;;;;;;;;0.66;61.93;99516.06;1087722;54;19943;-78
2023/02/26 01:13:14;;;;;;;;;;;;;;;0.64;62.28;99506.56;1087692;54;19942;-77
2023/02/26 01:14:18;;;;;;;;;;;;;;;0.62;62.25;99525.91;1087601;54;19943;-78
2023/02/26 01:15:19;;;;;;;;;;;;;;;0.66;62.21;99512.59;1087608;54;19942;-77
2023/02/26 01:16:26;;;;;;;;;;;;;;;0.69;62.07;99518.50;1087630;54;19935;-76
2023/02/26 01:17:31;;;;;;;;;;;;;;;0.65;62.01;99524.91;1088562;46;19950;-80
2023/02/26 01:18:40;;;;;;;;;;;;;;;0.68;62.20;99515.97;1087590;54;19998;-78
2023/02/26 01:19:43;;;;;;;;;;;;;;;0.63;61.99;99521.53;1087636;54;19943;-79
2023/02/26 01:20:51;;;;;;;;;;;;;;;0.54;62.04;99522.91;1091144;39;20524;-79
2023/02/26 01:21:55;;;;;;;;;;;;;;;0.55;62.24;99535.13;1087567;54;19949;-80
2023/02/26 01:23:02;;;;;;;;;;;;;;;0.46;62.66;99525.16;1087648;54;19974;-78
2023/02/26 01:24:08;;;;;;;;;;;;;;;0.37;62.23;99513.44;1087703;54;19947;-79
2023/02/26 01:25:53;;;;;;;;;;;;;;;0.31;62.80;99521.69;1088810;46;19938;-79
2023/02/26 01:26:55;;;;;;;;;;;;;;;0.19;63.20;99532.94;1087698;54;19949;-79
2023/02/26 01:28:05;;;;;;;;;;;;;;;0.21;63.34;99531.06;1087920;47;19954;-80
2023/02/26 01:29:07;;;;;;;;;;;;;;;0.19;63.43;99525.06;1087812;47;19999;-78
2023/02/26 01:30:33;;;;;;;;;;;;;;;0.21;63.20;99525.78;1088108;46;19938;-79
2023/02/26 01:31:48;;;;;;;;;;;;;;;0.14;63.33;99526.16;1087575;54;19930;-80
2023/02/26 01:32:58;;;;;;;;;;;;;;;0.15;63.68;99525.22;1087751;47;19939;-81
2023/02/26 01:34:06;;;;;;;;;;;;;;;0.15;63.20;99527.88;1088411;54;19958;-82
2023/02/26 01:35:25;;;;;;;;;;;;;;;0.12;63.43;99528.03;1088182;54;19998;-83
2023/02/26 01:37:38;;;;;;;;;;;;;;;0.08;63.64;99530.94;1088859;54;19930;-85
2023/02/26 01:39:55;;;;;;;;;;;;;;;0.09;63.53;99530.00;1084038;54;21022;31
2023/02/26 01:41:20;;;;;;;;;;;;;;;0.11;63.36;99526.34;1088423;54;19973;-85
2023/02/26 01:42:39;;;;;;;;;;;;;;;0.10;63.06;99531.69;1088896;47;19935;-85
2023/02/26 01:43:54;;;;;;;;;;;;;;;0.10;63.18;99529.06;1088389;54;19942;-86
2023/02/26 01:45:05;;;;;;;;;;;;;;;0.07;63.26;99530.09;1088356;54;19927;-84
2023/02/26 01:49:32;;;;;;;;;;;;;;;0.03;63.45;99528.56;1088430;39;20933;-83
2023/02/26 01:52:45;;;;;;;;;;;;;;;-0.02;64.02;99538.53;1075204;54;19958;31
2023/02/26 01:53:55;;;;;;;;;;;;;;;-0.02;63.97;99538.53;1083909;54;19939;-85
2023/02/26 01:56:02;;;;;;;;;;;;;;;0.08;63.71;99530.94;1074343;54;20706;-83
2023/02/26 01:58:17;;;;;;;;;;;;;;;0.04;63.41;99538.16;1080419;54;20845;31
2023/02/26 01:59:25;;;;;;;;;;;;;;;0.00;63.48;99536.66;1083449;54;19935;-82
2023/02/26 02:00:32;;;;;;;;;;;;;;;-0.01;63.39;99537.59;1079546;54;19946;31
2023/02/26 02:01:35;;;;;;;;;;;;;;;0.03;63.40;99544.34;1087741;54;20440;-82
2023/02/26 02:02:39;;;;;;;;;;;;;;;0.04;63.37;99527.66;1088168;54;19943;-83
2023/02/26 02:03:42;;;;;;;;;;;;;;;0.08;63.36;99539.69;1088297;54;19950;-82
2023/02/26 02:04:46;;;;;;;;;;;;;;;0.08;63.36;99539.69;1088296;54;19950;-84
2023/02/26 02:05:49;;;;;;;;;;;;;;;-0.02;62.73;99533.28;1090788;47;19939;-83
2023/02/26 02:06:53;;;;;;;;;;;;;;;-0.01;63.16;99534.97;1090660;47;19926;-82
2023/02/26 02:07:55;;;;;;;;;;;;;;;0.02;63.21;99536.56;1088425;54;19951;-82
2023/02/26 02:09:03;;;;;;;;;;;;;;;0.02;62.97;99534.78;1088375;54;19946;-83
2023/02/26 02:10:05;;;;;;;;;;;;;;;0.06;62.86;99535.44;1088546;47;19939;-82
2023/02/26 02:11:12;;;;;;;;;;;;;;;0.03;62.67;99541.72;1088336;54;19949;-82
2023/02/26 02:12:22;;;;;;;;;;;;;;;0.08;62.97;99541.44;1089510;47;19939;-83
2023/02/26 02:13:30;;;;;;;;;;;;;;;0.06;62.51;99538.91;1094066;47;19949;-85
2023/02/26 02:14:37;;;;;;;;;;;;;;;0.08;62.52;99544.94;1088415;54;20910;-82
2023/02/26 02:15:43;;;;;;;;;;;;;;;0.13;62.53;99539.41;1088447;54;19938;-82
2023/02/26 02:16:47;;;;;;;;;;;;;;;0.10;62.43;99537.78;1096935;39;20458;-82
2023/02/26 02:17:53;;;;;;;;;;;;;;;0.13;62.65;99535.00;1088424;54;19927;-80
2023/02/26 02:18:59;;;;;;;;;;;;;;;0.20;62.39;99540.72;1088400;54;19942;-84
2023/02/26 02:20:22;;;;;;;;;;;;;;;0.14;62.28;99543.75;1088428;54;19927;-82
2023/02/26 02:21:44;;;;;;;;;;;;;;;0.06;62.21;99541.56;1088284;54;19974;-83
2023/02/26 02:22:54;;;;;;;;;;;;;;;0.11;62.49;99539.47;1087447;54;19957;-78
2023/02/26 02:23:59;;;;;;;;;;;;;;;0.08;62.33;99550.19;1087285;54;19953;-81
2023/02/26 02:25:12;;;;;;;;;;;;;;;0.07;62.34;99540.63;1087294;54;19938;-80
2023/02/26 02:26:22;;;;;;;;;;;;;;;0.13;62.35;99547.31;1087609;54;19966;-79
2023/02/26 02:27:31;;;;;;;;;;;;;;;0.15;62.38;99540.16;1087459;54;19943;-81
2023/02/26 02:28:39;;;;;;;;;;;;;;;0.19;62.11;99535.56;1087738;54;19942;-82
2023/02/26 02:29:51;;;;;;;;;;;;;;;0.13;62.11;99542.03;1087646;54;19938;-80
2023/02/26 02:31:01;;;;;;;;;;;;;;;0.20;62.22;99532.84;1087898;54;19947;-80
2023/02/26 02:32:08;;;;;;;;;;;;;;;0.15;62.22;99535.75;1088413;54;19930;-81
2023/02/26 02:33:11;;;;;;;;;;;;;;;0.18;62.38;99547.03;1088467;54;19951;-85
2023/02/26 02:34:18;;;;;;;;;;;;;;;0.13;62.07;99536.78;1088528;54;19974;-84
2023/02/26 02:35:21;;;;;;;;;;;;;;;0.15;62.14;99534.88;1093335;39;20456;-84
2023/02/26 02:36:30;;;;;;;;;;;;;;;0.10;62.24;99542.22;1088383;54;19929;-82
2023/02/26 02:37:33;;;;;;;;;;;;;;;0.15;62.24;99533.13;1088459;54;19922;-84
2023/02/26 02:38:40;;;;;;;;;;;;;;;0.19;62.08;99535.56;1088411;54;19943;-83
2023/02/26 02:39:43;;;;;;;;;;;;;;;0.25;62.24;99545.72;1088489;54;19950;-82
2023/02/26 02:40:49;;;;;;;;;;;;;;;0.19;62.03;99536.41;1088482;54;19950;-81
2023/02/26 02:43:01;;;;;;;;;;;;;;;0.11;62.31;99542.09;1088350;54;19956;-82
2023/02/26 02:45:10;;;;;;;;;;;;;;;0.08;62.53;99544.94;1087545;54;20627;-81
2023/02/26 02:46:17;;;;;;;;;;;;;;;0.04;62.22;99543.41;1090704;39;20384;-81
2023/02/26 02:47:22;;;;;;;;;;;;;;;-0.03;62.52;99544.72;1088413;54;20007;-83
2023/02/26 02:48:27;;;;;;;;;;;;;;;-0.03;62.44;99542.09;1088484;54;19939;-83
2023/02/26 02:49:35;;;;;;;;;;;;;;;-0.07;62.55;99549.31;1088324;54;19951;-81
2023/02/26 02:50:39;;;;;;;;;;;;;;;-0.07;62.51;99541.44;1088385;54;20378;-81
2023/02/26 02:51:46;;;;;;;;;;;;;;;-0.08;62.60;99547.63;1088374;54;19939;-81
2023/02/26 02:52:49;;;;;;;;;;;;;;;-0.01;62.72;99556.00;1091864;39;20459;-83
2023/02/26 02:53:56;;;;;;;;;;;;;;;0.01;62.52;99546.22;1088437;54;19950;-80
2023/02/26 02:55:01;;;;;;;;;;;;;;;0.04;62.68;99546.03;1088357;54;19970;-79
2023/02/26 02:56:07;;;;;;;;;;;;;;;0.02;62.39;99552.34;1088326;54;19950;-81
2023/02/26 02:57:13;;;;;;;;;;;;;;;-0.02;62.33;99549.03;1088453;54;19954;-82
2023/02/26 02:58:19;;;;;;;;;;;;;;;-0.06;62.57;99553.63;1088428;54;19939;-83
2023/02/26 02:59:24;;;;;;;;;;;;;;;-0.08;62.52;99559.88;1090071;39;20569;-82
2023/02/26 03:01:36;;;;;;;;;;;;;;;-0.16;62.72;99561.19;1088754;54;20684;-83
2023/02/26 03:08:51;;;;;;;;;;;;;;;-0.17;63.36;99575.25;1088700;54;19934;-84
2023/02/26 03:09:53;;;;;;;;;;;;;;;-0.23;63.42;99566.88;1088773;54;19950;-84
2023/02/26 03:13:17;;;;;;;;;;;;;;;-0.31;63.58;99567.31;1085169;54;19973;31
2023/02/26 03:18:37;;;;;;;;;;;;;;;-0.29;63.63;99570.72;1083877;39;20758;31
2023/02/26 03:19:48;;;;;;;;;;;;;;;-0.25;63.38;99572.22;1080826;54;20892;31
2023/02/26 03:25:10;;;;;;;;;;;;;;;-0.22;63.50;99576.44;1088794;54;19927;-85
2023/02/26 03:28:24;;;;;;;;;;;;;;;-0.24;63.23;99575.72;1088863;54;20653;-84
2023/02/26 03:33:43;;;;;;;;;;;;;;;-0.19;62.74;99585.00;1088749;54;19927;-84
2023/02/26 03:40:00;;;;;;;;;;;;;;;-0.17;62.87;99583.13;1088720;54;19927;-83
2023/02/26 03:41:04;;;;;;;;;;;;;;;-0.12;62.98;99597.81;1107689;39;20408;-85
2023/02/26 03:42:12;;;;;;;;;;;;;;;-0.06;62.80;99594.81;1122254;39;20633;-86
2023/02/26 03:45:33;;;;;;;;;;;;;;;0.03;62.55;99593.47;1069788;39;20281;31
2023/02/26 03:48:41;;;;;;;;;;;;;;;0.11;62.26;99609.63;1088831;39;20575;-85
2023/02/26 03:49:45;;;;;;;;;;;;;;;0.12;62.33;99601.63;1070211;54;21002;31
2023/02/26 03:51:55;;;;;;;;;;;;;;;0.15;62.31;99605.88;1071224;54;20005;31
2023/02/26 03:54:04;;;;;;;;;;;;;;;0.18;62.03;99613.59;1071923;54;21267;31
2023/02/26 03:58:20;;;;;;;;;;;;;;;0.18;62.15;99618.84;1067637;54;21014;31
2023/02/26 04:01:35;;;;;;;;;;;;;;;0.18;62.21;99628.53;1073588;54;21041;31
2023/02/26 04:02:43;;;;;;;;;;;;;;;0.19;62.04;99631.06;1067938;54;19947;31
2023/02/26 04:09:00;;;;;;;;;;;;;;;0.12;61.68;99632.34;1067535;54;20991;31
2023/02/26 04:10:03;;;;;;;;;;;;;;;0.08;62.09;99625.56;1070473;54;21049;31
2023/02/26 04:12:12;;;;;;;;;;;;;;;0.05;62.51;99628.41;1068223;54;19954;31
2023/02/26 04:13:19;;;;;;;;;;;;;;;0.05;62.93;99633.66;1068424;54;20418;31
2023/02/26 04:16:30;;;;;;;;;;;;;;;0.09;62.82;99633.38;1067567;54;21076;31
2023/02/26 04:17:34;;;;;;;;;;;;;;;0.11;63.03;99639.38;1069185;39;21462;31
2023/02/26 04:20:43;;;;;;;;;;;;;;;0.12;62.92;99638.44;1068038;39;21472;31
2023/02/26 04:21:46;;;;;;;;;;;;;;;0.10;62.79;99634.22;1081820;54;19927;31
2023/02/26 04:25:57;;;;;;;;;;;;;;;0.12;62.90;99643.69;1076611;54;20826;31
2023/02/26 04:28:16;;;;;;;;;;;;;;;0.17;62.79;99639.97;1076943;54;19973;-84
2023/02/26 04:29:20;;;;;;;;;;;;;;;0.18;62.81;99649.56;1088590;54;19947;-82
2023/02/26 04:30:24;;;;;;;;;;;;;;;0.17;63.08;99646.06;1088671;54;19926;-81
2023/02/26 04:31:25;;;;;;;;;;;;;;;0.13;63.16;99647.19;1088598;54;19934;-84
2023/02/26 04:32:28;;;;;;;;;;;;;;;0.15;62.73;99648.78;1088661;54;19947;-82
2023/02/26 04:33:32;;;;;;;;;;;;;;;0.10;62.88;99650.81;1088653;54;19923;-82
2023/02/26 04:34:35;;;;;;;;;;;;;;;0.06;63.00;99648.47;1088496;54;19946;-84
2023/02/26 04:35:36;;;;;;;;;;;;;;;-0.01;63.08;99640.94;1088062;54;19950;-81
2023/02/26 04:36:40;;;;;;;;;;;;;;;0.01;63.11;99650.50;1088088;54;20535;-84
2023/02/26 04:37:41;;;;;;;;;;;;;;;0.02;63.11;99645.16;1088104;54;19946;-80
2023/02/26 04:38:45;;;;;;;;;;;;;;;0.02;63.00;99653.03;1087853;54;19981;-82
2023/02/26 04:39:46;;;;;;;;;;;;;;;0.06;63.13;99648.47;1087785;54;19946;-82
2023/02/26 04:40:51;;;;;;;;;;;;;;;0.06;62.80;99646.69;1087965;54;19943;-81
2023/02/26 04:41:52;;;;;;;;;;;;;;;0.07;62.86;99653.66;1088073;54;19946;-80
2023/02/26 04:42:55;;;;;;;;;;;;;;;0.05;63.08;99655.50;1088036;54;19947;-81
2023/02/26 04:43:57;;;;;;;;;;;;;;;0.04;62.93;99652.97;1088090;54;19951;-82
2023/02/26 04:45:03;;;;;;;;;;;;;;;0.02;63.04;99653.03;1087768;54;19939;-84
2023/02/26 04:46:07;;;;;;;;;;;;;;;-0.03;62.87;99660.34;1088196;54;19946;-81
2023/02/26 04:47:08;;;;;;;;;;;;;;;-0.06;63.13;99665.78;1088277;54;19958;-84
2023/02/26 04:48:12;;;;;;;;;;;;;;;-0.06;63.32;99652.63;1088294;54;19953;-81
2023/02/26 04:49:16;;;;;;;;;;;;;;;-0.08;63.13;99657.13;1088316;54;19927;-81
2023/02/26 04:50:19;;;;;;;;;;;;;;;-0.06;63.01;99655.25;1096562;39;20466;-81
2023/02/26 04:51:20;;;;;;;;;;;;;;;-0.05;62.98;99659.59;1088348;54;19926;-83
2023/02/26 04:52:24;;;;;;;;;;;;;;;-0.04;63.06;99656.03;1088333;54;20019;-82
2023/02/26 04:53:28;;;;;;;;;;;;;;;-0.02;63.00;99659.44;1088440;54;19950;-82
2023/02/26 04:54:33;;;;;;;;;;;;;;;-0.05;62.66;99664.84;1088394;54;19949;-83
2023/02/26 04:55:35;;;;;;;;;;;;;;;-0.05;62.80;99662.22;1088311;54;19953;-81
2023/02/26 04:56:38;;;;;;;;;;;;;;;-0.07;62.70;99669.34;1088348;54;19927;-80
2023/02/26 04:57:39;;;;;;;;;;;;;;;-0.18;62.94;99664.69;1088413;54;19934;-82
2023/02/26 04:58:43;;;;;;;;;;;;;;;-0.27;63.30;99665.19;1088217;54;19938;-82
2023/02/26 04:59:44;;;;;;;;;;;;;;;-0.29;63.21;99665.31;1088299;54;20610;-82
2023/02/26 05:00:52;;;;;;;;;;;;;;;-0.39;63.57;99666.72;1088404;54;19934;-83
2023/02/26 05:01:53;;;;;;;;;;;;;;;-0.41;63.55;99665.97;1088280;54;19926;-82
2023/02/26 05:02:57;;;;;;;;;;;;;;;-0.39;63.73;99667.56;1088202;54;19949;-84
2023/02/26 05:03:58;;;;;;;;;;;;;;;-0.41;63.70;99663.34;1087928;54;19942;-81
2023/02/26 05:05:02;;;;;;;;;;;;;;;-0.44;63.49;99666.97;1088109;54;19927;-81
2023/02/26 05:06:04;;;;;;;;;;;;;;;-0.47;63.71;99662.72;1088111;54;20455;-81
2023/02/26 05:07:07;;;;;;;;;;;;;;;-0.44;63.81;99666.97;1087979;54;19946;-82
2023/02/26 05:08:09;;;;;;;;;;;;;;;-0.45;63.77;99670.53;1087996;54;20467;-83
2023/02/26 05:09:12;;;;;;;;;;;;;;;-0.49;63.96;99674.25;1088157;54;19934;-83
2023/02/26 05:10:14;;;;;;;;;;;;;;;-0.56;64.07;99676.34;1088250;54;19942;-82
2023/02/26 05:11:17;;;;;;;;;;;;;;;-0.58;63.93;99673.00;1087986;54;19946;-81
2023/02/26 05:12:19;;;;;;;;;;;;;;;-0.49;64.10;99675.13;1088054;54;19939;-81
2023/02/26 05:13:23;;;;;;;;;;;;;;;-0.47;63.76;99667.13;1088042;54;19939;-81
2023/02/26 05:14:24;;;;;;;;;;;;;;;-0.45;63.76;99678.41;1088020;54;19934;-82
2023/02/26 05:15:28;;;;;;;;;;;;;;;-0.43;63.37;99675.69;1088141;54;20658;-83
2023/02/26 05:16:32;;;;;;;;;;;;;;;-0.42;63.72;99680.03;1087993;54;19923;-83
2023/02/26 05:17:36;;;;;;;;;;;;;;;-0.47;63.55;99678.47;1088056;54;19953;-82
2023/02/26 05:18:38;;;;;;;;;;;;;;;-0.50;63.60;99686.56;1087921;54;19943;-82
2023/02/26 05:19:41;;;;;;;;;;;;;;;-0.55;63.76;99688.56;1087874;54;19964;-83
2023/02/26 05:20:43;;;;;;;;;;;;;;;-0.63;64.14;99682.88;1088039;54;19942;-81
2023/02/26 05:21:48;;;;;;;;;;;;;;;-0.57;64.24;99689.56;1088051;54;19950;-82
2023/02/26 05:22:49;;;;;;;;;;;;;;;-0.68;64.18;99687.53;1088264;54;19946;-81
2023/02/26 05:23:53;;;;;;;;;;;;;;;-0.64;64.44;99683.81;1089005;46;19939;-82
2023/02/26 05:24:54;;;;;;;;;;;;;;;-0.58;64.14;99682.63;1088125;54;19950;-82
2023/02/26 05:25:58;;;;;;;;;;;;;;;-0.55;64.14;99693.81;1088398;54;19951;-82
2023/02/26 05:26:59;;;;;;;;;;;;;;;-0.57;64.18;99693.06;1088361;54;19926;-83
2023/02/26 05:28:03;;;;;;;;;;;;;;;-0.59;64.27;99691.44;1088410;54;19934;-82
2023/02/26 05:29:04;;;;;;;;;;;;;;;-0.57;64.10;99693.06;1093225;46;20644;-81
2023/02/26 05:30:11;;;;;;;;;;;;;;;-0.55;64.05;99693.81;1088288;54;19973;-82
2023/02/26 05:31:12;;;;;;;;;;;;;;;-0.58;64.12;99695.75;1088449;54;19947;-82
2023/02/26 05:32:18;;;;;;;;;;;;;;;-0.57;63.96;99700.09;1099032;39;20269;-81
2023/02/26 05:33:19;;;;;;;;;;;;;;;-0.67;64.24;99697.13;1088444;54;19966;-83
2023/02/26 05:34:23;;;;;;;;;;;;;;;-0.72;64.34;99701.75;1090355;46;19923;-82
2023/02/26 05:35:28;;;;;;;;;;;;;;;-0.72;64.65;99704.38;1092664;46;19935;-81
2023/02/26 05:36:29;;;;;;;;;;;;;;;-0.81;64.57;99703.94;1094098;47;19939;-82
2023/02/26 05:37:33;;;;;;;;;;;;;;;-0.89;64.95;99707.88;1091646;46;19927;-83
2023/02/26 05:38:37;;;;;;;;;;;;;;;-0.96;65.29;99702.94;1088373;54;20018;-82
2023/02/26 05:39:40;;;;;;;;;;;;;;;-0.96;65.27;99707.38;1089552;46;19930;-82
2023/02/26 05:40:43;;;;;;;;;;;;;;;-0.98;65.22;99712.66;1088189;54;19941;-83
2023/02/26 05:41:45;;;;;;;;;;;;;;;-1.01;65.38;99715.47;1088226;54;19949;-82
2023/02/26 05:42:50;;;;;;;;;;;;;;;-1.04;65.60;99713.00;1088494;47;19942;-83
2023/02/26 05:43:51;;;;;;;;;;;;;;;-1.05;65.72;99715.72;1088312;54;19972;-81
2023/02/26 05:44:56;;;;;;;;;;;;;;;-1.11;65.51;99717.72;1089694;47;19982;-84
2023/02/26 05:45:57;;;;;;;;;;;;;;;-1.09;65.75;99717.66;1088325;54;19950;-82
2023/02/26 05:47:01;;;;;;;;;;;;;;;-1.17;66.07;99717.16;1088416;54;20002;-82
2023/02/26 05:48:05;;;;;;;;;;;;;;;-1.12;65.97;99721.25;1088418;54;20018;-81
2023/02/26 05:50:14;;;;;;;;;;;;;;;-1.18;65.94;99718.13;1088334;54;19943;-82
2023/02/26 05:51:15;;;;;;;;;;;;;;;-1.15;65.78;99731.06;1088393;54;19950;-83
2023/02/26 05:52:19;;;;;;;;;;;;;;;-1.16;66.08;99724.97;1089578;47;19945;-81
2023/02/26 05:53:20;;;;;;;;;;;;;;;-1.18;65.86;99723.38;1088208;54;19943;-82
2023/02/26 05:54:24;;;;;;;;;;;;;;;-1.20;66.03;99723.41;1088328;54;19949;-81
2023/02/26 05:55:25;;;;;;;;;;;;;;;-1.18;66.00;99723.38;1088231;54;19934;-81
2023/02/26 05:56:28;;;;;;;;;;;;;;;-1.15;66.13;99726.69;1088067;54;20029;-81
2023/02/26 05:57:30;;;;;;;;;;;;;;;-1.13;65.92;99731.84;1088410;47;19946;-81
2023/02/26 05:58:33;;;;;;;;;;;;;;;-1.16;65.64;99729.34;1088217;54;19950;-82
2023/02/26 05:59:35;;;;;;;;;;;;;;;-1.15;66.00;99729.31;1088227;54;19934;-82
2023/02/26 06:00:38;;;;;;;;;;;;;;;-1.18;65.70;99723.38;1088342;54;20011;-80
2023/02/26 06:01:41;;;;;;;;;;;;;;;-1.22;66.02;99730.50;1088447;54;19927;-82
2023/02/26 06:02:45;;;;;;;;;;;;;;;-1.23;66.06;99731.47;1088317;54;19942;-81
2023/02/26 06:03:49;;;;;;;;;;;;;;;-1.27;66.26;99730.75;1088254;54;19933;-83
2023/02/26 06:04:52;;;;;;;;;;;;;;;-1.20;65.96;99735.72;1088410;54;19954;-82
2023/02/26 06:05:54;;;;;;;;;;;;;;;-1.17;65.96;99741.63;1088477;54;19935;-83
2023/02/26 06:06:58;;;;;;;;;;;;;;;-1.14;65.64;99746.75;1088500;54;19927;-84
2023/02/26 06:08:00;;;;;;;;;;;;;;;-1.05;65.90;99739.34;1088397;54;19994;-81
2023/02/26 06:09:03;;;;;;;;;;;;;;;-1.03;65.52;99734.81;1088379;54;19926;-82
2023/02/26 06:10:07;;;;;;;;;;;;;;;-1.05;65.62;99741.94;1088479;54;19942;-83
2023/02/26 06:11:11;;;;;;;;;;;;;;;-1.06;65.46;99751.59;1094993;39;20843;-83
2023/02/26 06:12:12;;;;;;;;;;;;;;;-1.12;65.56;99750.13;1088485;54;19923;-83
2023/02/26 06:13:17;;;;;;;;;;;;;;;-1.18;65.85;99752.22;1088476;54;19927;-82
2023/02/26 06:14:18;;;;;;;;;;;;;;;-1.24;65.73;99755.13;1088449;54;19927;-84
2023/02/26 06:15:22;;;;;;;;;;;;;;;-1.30;65.93;99751.03;1088349;54;19927;-83
2023/02/26 06:16:23;;;;;;;;;;;;;;;-1.33;66.08;99754.66;1088420;54;19930;-84
2023/02/26 06:17:28;;;;;;;;;;;;;;;-1.27;66.22;99754.34;1088448;54;19922;-81
2023/02/26 06:18:31;;;;;;;;;;;;;;;-1.26;66.34;99755.22;1088424;54;19939;-84
2023/02/26 06:19:38;;;;;;;;;;;;;;;-1.30;66.22;99761.53;1088387;54;19949;-84
2023/02/26 06:20:39;;;;;;;;;;;;;;;-1.35;66.44;99767.00;1088361;54;19949;-82
2023/02/26 06:21:43;;;;;;;;;;;;;;;-1.39;66.79;99767.22;1088451;54;19927;-85
2023/02/26 06:22:44;;;;;;;;;;;;;;;-1.36;66.80;99764.47;1088836;54;19935;-83
2023/02/26 06:23:48;;;;;;;;;;;;;;;-1.38;66.81;99766.31;1088784;54;19927;-82
2023/02/26 06:25:57;;;;;;;;;;;;;;;-1.43;66.80;99777.91;1088741;54;19950;-84
2023/02/26 06:28:03;;;;;;;;;;;;;;;-1.39;66.79;99775.09;1088662;54;20237;-83
2023/02/26 06:29:04;;;;;;;;;;;;;;;-1.30;66.80;99775.50;1088736;54;19945;-83
2023/02/26 06:30:09;;;;;;;;;;;;;;;-1.21;66.38;99768.94;1088537;54;19951;-83
2023/02/26 06:31:10;;;;;;;;;;;;;;;-1.19;66.08;99769.72;1088624;54;19999;-81
2023/02/26 06:32:14;;;;;;;;;;;;;;;-1.17;66.19;99777.50;1088742;54;19926;-82
2023/02/26 06:33:15;;;;;;;;;;;;;;;-1.14;66.10;99780.84;1088785;54;19942;-85
2023/02/26 06:34:21;;;;;;;;;;;;;;;-1.10;65.92;99785.00;1088773;54;19927;-83
2023/02/26 06:36:28;;;;;;;;;;;;;;;-1.11;65.71;99780.69;1088600;46;21141;-84
2023/02/26 06:37:29;;;;;;;;;;;;;;;-1.13;65.81;99790.41;1096302;46;19939;-84
2023/02/26 06:40:40;;;;;;;;;;;;;;;-1.16;65.89;99787.06;1088782;54;19939;-82
2023/02/26 06:41:41;;;;;;;;;;;;;;;-1.16;66.06;99797.56;1089859;39;20359;-81
2023/02/26 06:42:45;;;;;;;;;;;;;;;-1.20;66.14;99801.28;1088628;54;19954;-82
2023/02/26 06:46:15;;;;;;;;;;;;;;;-1.26;66.51;99808.53;1069221;54;20726;31
2023/02/26 06:47:16;;;;;;;;;;;;;;;-1.30;66.20;99808.75;1088048;54;20491;-80
2023/02/26 06:48:20;;;;;;;;;;;;;;;-1.23;66.29;99809.31;1088043;46;19942;-80
2023/02/26 06:49:21;;;;;;;;;;;;;;;-1.18;66.00;99808.16;1088223;39;20401;-81
2023/02/26 06:50:25;;;;;;;;;;;;;;;-1.21;66.14;99812.72;1087923;54;20031;-81
2023/02/26 06:51:29;;;;;;;;;;;;;;;-1.21;66.03;99821.41;1087864;54;19938;-81
2023/02/26 06:52:34;;;;;;;;;;;;;;;-1.22;66.06;99821.50;1088158;54;19927;-82
2023/02/26 06:53:35;;;;;;;;;;;;;;;-1.20;66.01;99828.34;1088224;54;19946;-81
2023/02/26 06:54:38;;;;;;;;;;;;;;;-1.19;66.11;99823.97;1088036;54;19927;-82
2023/02/26 06:55:42;;;;;;;;;;;;;;;-1.24;66.16;99816.34;1088320;54;19927;-82
2023/02/26 06:56:46;;;;;;;;;;;;;;;-1.21;66.12;99824.03;1087988;54;19957;-82
2023/02/26 06:57:47;;;;;;;;;;;;;;;-1.19;66.31;99824.81;1088468;54;19947;-81
2023/02/26 06:58:51;;;;;;;;;;;;;;;-1.15;66.03;99831.63;1088111;54;19942;-81
2023/02/26 06:59:53;;;;;;;;;;;;;;;-1.07;66.19;99827.75;1090095;39;20593;-82
2023/02/26 07:00:57;;;;;;;;;;;;;;;-1.08;65.98;99831.31;1088242;54;19993;-84
2023/02/26 07:01:58;;;;;;;;;;;;;;;-1.05;65.83;99829.38;1093340;46;19974;-84
2023/02/26 07:03:02;;;;;;;;;;;;;;;-1.09;65.80;99833.09;1088321;54;19935;-82
2023/02/26 07:04:03;;;;;;;;;;;;;;;-1.12;65.51;99831.44;1088290;54;19946;-82
2023/02/26 07:05:08;;;;;;;;;;;;;;;-1.11;65.42;99830.53;1088295;54;19954;-82
2023/02/26 07:06:09;;;;;;;;;;;;;;;-1.10;65.78;99828.78;1088563;54;19942;-82
2023/02/26 07:07:16;;;;;;;;;;;;;;;-1.10;65.59;99832.22;1088401;54;20575;-83
2023/02/26 07:08:17;;;;;;;;;;;;;;;-1.10;65.39;99834.84;1090786;39;20437;-84
2023/02/26 07:11:35;;;;;;;;;;;;;;;-0.94;65.34;99839.34;1069141;39;22057;31
2023/02/26 07:12:37;;;;;;;;;;;;;;;-0.96;65.31;99841.22;1071515;54;20995;-84
2023/02/26 07:14:44;;;;;;;;;;;;;;;-0.84;65.23;99837.94;1075629;54;20682;31
2023/02/26 07:15:49;;;;;;;;;;;;;;;-0.89;64.79;99832.09;1068314;54;19953;31
2023/02/26 07:19:10;;;;;;;;;;;;;;;-0.63;65.03;99837.78;1068784;31;20184;31
2023/02/26 07:21:15;;;;;;;;;;;;;;;-0.53;64.43;99844.28;1088327;54;19947;-84
2023/02/26 07:22:19;;;;;;;;;;;;;;;-0.52;64.41;99837.25;1088915;46;20027;-80
2023/02/26 07:26:49;;;;;;;;;;;;;;;-0.47;64.27;99851.81;1072151;54;19958;31
2023/02/26 07:31:06;;;;;;;;;;;;;;;-0.59;64.14;99849.00;1079356;54;19950;-82
2023/02/26 07:32:07;;;;;;;;;;;;;;;-0.57;64.32;99853.25;1089245;39;20259;-85
2023/02/26 07:33:11;;;;;;;;;;;;;;;-0.51;64.29;99857.31;1088447;54;19949;-83
2023/02/26 07:34:13;;;;;;;;;;;;;;;-0.45;63.79;99861.41;1088378;54;19957;-81
2023/02/26 07:35:17;;;;;;;;;;;;;;;-0.41;63.88;99865.59;1088192;54;19931;-83
2023/02/26 07:36:18;;;;;;;;;;;;;;;-0.43;63.47;99859.56;1088283;54;19942;-80
2023/02/26 07:37:25;;;;;;;;;;;;;;;-0.40;63.68;99869.91;1088067;54;19946;-81
2023/02/26 07:38:26;;;;;;;;;;;;;;;-0.51;63.57;99863.44;1088306;54;19935;-81
2023/02/26 07:39:30;;;;;;;;;;;;;;;-0.48;63.84;99862.44;1088488;54;19949;-81
2023/02/26 07:40:32;;;;;;;;;;;;;;;-0.49;63.81;99869.47;1088272;54;19927;-81
2023/02/26 07:41:35;;;;;;;;;;;;;;;-0.48;63.96;99865.06;1088415;54;19946;-83
2023/02/26 07:42:37;;;;;;;;;;;;;;;-0.56;63.83;99872.47;1088355;54;19939;-81
2023/02/26 07:43:41;;;;;;;;;;;;;;;-0.59;64.09;99865.63;1088018;54;19949;-81
2023/02/26 07:45:51;;;;;;;;;;;;;;;-0.56;64.01;99873.31;1088373;54;19942;-82
2023/02/26 07:46:52;;;;;;;;;;;;;;;-0.63;64.02;99875.44;1088440;54;19950;-82
2023/02/26 07:47:56;;;;;;;;;;;;;;;-0.58;63.99;99877.81;1088556;54;19944;-81
2023/02/26 07:48:57;;;;;;;;;;;;;;;-0.68;64.05;99881.84;1088723;39;20525;-82
2023/02/26 07:50:01;;;;;;;;;;;;;;;-0.64;64.15;99886.84;1088372;54;20006;-83
2023/02/26 07:51:02;;;;;;;;;;;;;;;-0.70;64.32;99884.50;1088329;54;19950;-82
2023/02/26 07:52:06;;;;;;;;;;;;;;;-0.65;64.17;99881.66;1089686;39;20201;-83
2023/02/26 07:53:13;;;;;;;;;;;;;;;-0.52;64.41;99874.88;1088605;54;19943;-82
2023/02/26 07:54:15;;;;;;;;;;;;;;;-0.45;64.03;99879.78;1088453;54;19982;-82
2023/02/26 07:55:19;;;;;;;;;;;;;;;-0.44;63.88;99878.88;1088354;54;19942;-81
2023/02/26 07:56:20;;;;;;;;;;;;;;;-0.42;64.05;99883.13;1088553;54;19938;-81
2023/02/26 07:57:31;;;;;;;;;;;;;;;-0.37;64.06;99880.25;1088412;54;19943;-82
2023/02/26 07:58:32;;;;;;;;;;;;;;;-0.33;63.82;99884.44;1088642;54;19943;-83
2023/02/26 07:59:36;;;;;;;;;;;;;;;-0.34;63.38;99882.72;1088653;54;19942;-84
2023/02/26 08:00:40;;;;;;;;;;;;;;;-0.31;63.50;99885.22;1088557;54;19990;-83
2023/02/26 08:01:41;;;;;;;;;;;;;;;-0.39;64.07;99892.63;1088439;54;19957;-83
2023/02/26 08:02:44;;;;;;;;;;;;;;;-0.32;64.03;99889.59;1088404;54;19926;-83
2023/02/26 08:03:46;;;;;;;;;;;;;;;-0.27;64.01;99891.97;1088439;54;19943;-81
2023/02/26 08:05:52;;;;;;;;;;;;;;;-0.24;63.74;99896.25;1088114;54;21004;-82
2023/02/26 08:06:53;;;;;;;;;;;;;;;-0.28;63.67;99892.91;1088149;54;19942;-83
2023/02/26 08:07:57;;;;;;;;;;;;;;;-0.29;64.07;99893.88;1088505;54;19950;-84
2023/02/26 08:09:01;;;;;;;;;;;;;;;-0.25;63.91;99890.13;1088557;54;20578;-82
2023/02/26 08:10:08;;;;;;;;;;;;;;;-0.21;64.27;99886.44;1096879;39;20565;-82
2023/02/26 08:11:09;;;;;;;;;;;;;;;-0.13;63.87;99898.31;1088469;54;19950;-82
2023/02/26 08:12:14;;;;;;;;;;;;;;;-0.10;64.15;99893.75;1088455;47;19942;-82
2023/02/26 08:13:19;;;;;;;;;;;;;;;-0.12;64.31;99892.97;1091019;46;19990;-83
2023/02/26 08:14:25;;;;;;;;;;;;;;;-0.06;64.29;99889.16;1090468;46;19931;-83
2023/02/26 08:15:30;;;;;;;;;;;;;;;-0.03;64.27;99894.28;1088378;54;19943;-83